createdAt,value
2019-06-07T00:00:54.781Z,1.22
2019-06-07T00:03:29.705Z,1.40
2019-06-07T00:05:51.467Z,1.20
2019-06-07T00:08:26.666Z,1.30
2019-06-07T00:10:48.072Z,1.37
2019-06-07T00:13:20.201Z,1.30
2019-06-07T00:15:46.484Z,1.35
2019-06-07T00:18:17.524Z,1.32
2019-06-07T00:20:44.822Z,1.32
2019-06-07T00:23:14.853Z,1.15
2019-06-07T00:25:41.403Z,1.60
2019-06-07T00:28:08.754Z,1.20
2019-06-07T00:30:50.779Z,1.60
2019-06-07T00:33:05.313Z,1.27
2019-06-07T00:35:32.623Z,1.37
2019-06-07T00:37:59.967Z,1.42
2019-06-07T00:40:31.876Z,1.40
2019-06-07T00:42:56.497Z,1.45
2019-06-07T00:45:24.684Z,1.50
2019-06-07T00:47:52.440Z,1.50
2019-06-07T00:50:23.518Z,1.57
2019-06-07T00:55:22.222Z,1.87
2019-06-07T00:57:47.863Z,1.47
2019-06-07T01:00:18.283Z,1.45
2019-06-07T01:02:46.564Z,1.85
2019-06-07T01:05:17.160Z,1.30
2019-06-07T01:07:43.444Z,1.60
2019-06-07T01:10:13.676Z,1.60
2019-06-07T01:12:41.174Z,1.55
2019-06-07T01:15:10.566Z,1.70
2019-06-07T01:17:50.163Z,1.62
2019-06-07T01:20:08.946Z,1.70
2019-06-07T01:22:36.290Z,1.55
2019-06-07T01:25:04.362Z,1.67
2019-06-07T01:27:31.668Z,1.65
2019-06-07T01:30:00.067Z,1.70
2019-06-07T01:32:31.508Z,1.62
2019-06-07T01:34:56.674Z,1.42
2019-06-07T01:37:27.777Z,1.60
2019-06-07T01:39:53.218Z,1.60
2019-06-07T01:42:22.137Z,1.30
2019-06-07T01:44:49.732Z,1.70
2019-06-07T01:47:17.858Z,1.62
2019-06-07T01:49:45.896Z,1.60
2019-06-07T01:52:13.206Z,1.60
2019-06-07T01:54:55.983Z,1.50
2019-06-07T01:57:30.496Z,1.57
2019-06-07T01:59:38.945Z,1.40
2019-06-07T02:02:06.288Z,1.50
2019-06-07T02:04:33.855Z,1.60
2019-06-07T02:07:01.168Z,1.50
2019-06-07T02:09:31.528Z,1.65
2019-06-07T02:11:57.685Z,1.47
2019-06-07T02:14:27.364Z,1.62
2019-06-07T02:16:54.211Z,1.50
2019-06-07T02:19:21.987Z,1.65
2019-06-07T02:21:49.547Z,1.70
2019-06-07T02:24:16.843Z,1.70
2019-06-07T02:26:44.167Z,1.50
2019-06-07T02:29:11.508Z,1.55
2019-06-07T02:31:39.981Z,1.60
2019-06-07T02:34:07.558Z,1.40
2019-06-07T02:36:40.976Z,1.42
2019-06-07T02:39:06.082Z,1.52
2019-06-07T02:41:39.321Z,1.40
2019-06-07T02:44:02.567Z,1.40
2019-06-07T02:46:40.204Z,1.70
2019-06-07T02:48:59.133Z,1.40
2019-06-07T02:51:32.192Z,1.55
2019-06-07T02:53:55.662Z,1.70
2019-06-07T02:56:52.243Z,1.52
2019-06-07T02:58:53.519Z,1.80
2019-06-07T03:01:20.920Z,1.67
2019-06-07T03:03:48.322Z,1.60
2019-06-07T03:06:15.809Z,1.82
2019-06-07T03:08:44.668Z,1.70
2019-06-07T03:11:13.975Z,1.80
2019-06-07T03:13:42.631Z,1.90
2019-06-07T03:16:11.874Z,1.67
2019-06-07T03:19:04.955Z,1.40
2019-06-07T03:21:36.382Z,1.70
2019-06-07T03:24:04.018Z,1.62
2019-06-07T03:26:45.033Z,1.72
2019-06-07T03:29:00.767Z,1.67
2019-06-07T03:31:32.672Z,1.70
2019-06-07T03:33:59.094Z,1.70
2019-06-07T03:36:27.595Z,1.70
2019-06-07T03:38:55.050Z,1.70
2019-06-07T03:41:22.827Z,1.98
2019-06-07T03:43:50.126Z,1.80
2019-06-07T03:46:17.436Z,1.62
2019-06-07T03:48:44.745Z,1.70
2019-06-07T03:51:24.702Z,1.77
2019-06-07T03:53:41.346Z,1.72
2019-06-07T03:56:08.833Z,1.65
2019-06-07T03:58:47.975Z,1.80
2019-06-07T04:01:05.553Z,1.50
2019-06-07T04:03:42.375Z,1.50
2019-06-07T04:06:02.193Z,1.80
2019-06-07T04:08:30.785Z,1.40
2019-06-07T04:11:00.551Z,1.47
2019-06-07T04:13:30.469Z,1.40
2019-06-07T04:15:57.270Z,1.72
2019-06-07T04:18:24.609Z,1.40
2019-06-07T04:20:51.993Z,1.65
2019-06-07T04:23:29.885Z,1.60
2019-06-07T04:25:48.495Z,2.00
2019-06-07T04:28:15.806Z,1.70
2019-06-07T04:30:43.684Z,1.98
2019-06-07T04:33:11.437Z,1.62
2019-06-07T04:35:42.544Z,1.52
2019-06-07T04:38:09.533Z,1.50
2019-06-07T04:40:39.958Z,1.70
2019-06-07T04:43:06.645Z,1.70
2019-06-07T04:45:41.923Z,1.60
2019-06-07T04:48:05.136Z,1.77
2019-06-07T04:50:34.933Z,1.60
2019-06-07T04:53:02.592Z,1.50
2019-06-07T04:55:31.793Z,1.55
2019-06-07T04:58:00.971Z,1.90
2019-06-07T05:02:59.114Z,2.00
2019-06-07T05:05:26.500Z,2.00
2019-06-07T05:07:53.796Z,1.70
2019-06-07T05:10:21.188Z,1.70
2019-06-07T05:12:48.545Z,2.10
2019-06-07T05:15:15.955Z,1.95
2019-06-07T05:17:45.077Z,2.00
2019-06-07T05:20:12.497Z,1.90
2019-06-07T05:22:44.387Z,2.05
2019-06-07T05:25:09.294Z,2.30
2019-06-07T05:27:39.318Z,2.15
2019-06-07T05:30:24.176Z,2.37
2019-06-07T05:32:43.941Z,2.37
2019-06-07T05:35:08.150Z,2.27
2019-06-07T05:37:38.228Z,2.22
2019-06-07T05:40:06.589Z,2.35
2019-06-07T05:42:37.096Z,2.35
2019-06-07T05:45:05.418Z,2.58
2019-06-07T05:47:37.487Z,2.52
2019-06-07T05:50:02.287Z,2.50
2019-06-07T05:52:29.872Z,2.35
2019-06-07T05:54:57.256Z,2.75
2019-06-07T05:57:24.584Z,2.77
2019-06-07T05:59:51.944Z,2.87
2019-06-07T06:02:24.641Z,2.60
2019-06-07T06:04:49.542Z,2.60
2019-06-07T06:07:17.215Z,2.67
2019-06-07T06:09:46.098Z,2.40
2019-06-07T06:12:13.544Z,2.75
2019-06-07T06:14:44.073Z,2.42
2019-06-07T06:17:10.589Z,2.70
2019-06-07T06:19:40.669Z,2.40
2019-06-07T06:22:07.114Z,2.00
2019-06-07T06:24:34.440Z,2.77
2019-06-07T06:27:19.014Z,2.25
2019-06-07T06:29:31.078Z,2.40
2019-06-07T06:34:27.804Z,2.25
2019-06-07T06:36:55.150Z,2.27
2019-06-07T06:39:22.479Z,2.33
2019-06-07T06:42:01.083Z,2.30
2019-06-07T06:44:19.048Z,2.10
2019-06-07T06:46:56.250Z,2.08
2019-06-07T06:49:15.630Z,1.92
2019-06-07T06:51:46.987Z,2.08
2019-06-07T06:54:12.198Z,2.08
2019-06-07T06:56:39.827Z,2.12
2019-06-07T06:59:39.228Z,2.30
2019-06-07T07:01:37.088Z,2.37
2019-06-07T07:04:12.640Z,2.10
2019-06-07T07:06:34.074Z,2.42
2019-06-07T07:09:02.090Z,2.05
2019-06-07T07:11:29.481Z,2.30
2019-06-07T07:13:57.310Z,2.12
2019-06-07T07:16:24.900Z,1.92
2019-06-07T07:18:54.591Z,2.00
2019-06-07T07:21:21.437Z,2.02
2019-06-07T07:24:14.560Z,2.00
2019-06-07T07:26:18.115Z,1.85
2019-06-07T07:28:46.642Z,2.10
2019-06-07T07:31:14.724Z,1.82
2019-06-07T07:34:23.902Z,2.20
2019-06-07T07:36:28.508Z,1.92
2019-06-07T07:38:40.575Z,1.65
2019-06-07T07:41:15.156Z,1.92
2019-06-07T07:43:37.231Z,2.00
2019-06-07T07:46:27.938Z,1.75
2019-06-07T07:48:33.819Z,1.77
2019-06-07T07:51:03.143Z,2.08
2019-06-07T07:53:47.863Z,1.80
2019-06-07T07:56:00.961Z,1.65
2019-06-07T07:58:29.175Z,1.60
2019-06-07T08:01:16.087Z,1.52
2019-06-07T08:03:45.717Z,1.57
2019-06-07T08:06:13.411Z,2.15
2019-06-07T08:08:41.225Z,2.02
2019-06-07T08:11:08.763Z,1.90
2019-06-07T08:13:37.408Z,2.02
2019-06-07T08:16:12.315Z,1.70
2019-06-07T08:18:34.169Z,1.82
2019-06-07T08:21:21.369Z,1.87
2019-06-07T08:23:32.375Z,1.75
2019-06-07T08:26:01.178Z,1.85
2019-06-07T08:28:28.785Z,2.00
2019-06-07T08:31:04.419Z,2.30
2019-06-07T08:33:27.048Z,2.15
2019-06-07T08:36:11.182Z,1.85
2019-06-07T08:38:29.667Z,2.08
2019-06-07T08:40:59.066Z,1.95
2019-06-07T08:43:23.973Z,1.85
2019-06-07T08:45:58.451Z,2.22
2019-06-07T08:48:27.926Z,2.15
2019-06-07T08:50:54.290Z,2.33
2019-06-07T08:53:19.047Z,1.92
2019-06-07T08:55:47.550Z,2.02
2019-06-07T08:58:15.041Z,2.30
2019-06-07T09:00:46.669Z,2.00
2019-06-07T09:03:12.223Z,2.40
2019-06-07T09:05:39.681Z,2.08
2019-06-07T09:08:28.199Z,1.90
2019-06-07T09:10:36.330Z,2.22
2019-06-07T09:13:10.106Z,2.15
2019-06-07T09:15:33.315Z,2.20
2019-06-07T09:20:44.435Z,2.40
2019-06-07T09:23:17.286Z,2.70
2019-06-07T09:25:56.527Z,1.85
2019-06-07T09:28:19.180Z,2.20
2019-06-07T09:30:42.478Z,1.90
2019-06-07T09:33:10.660Z,2.10
2019-06-07T09:35:38.358Z,1.67
2019-06-07T09:38:18.029Z,1.70
2019-06-07T09:40:35.048Z,2.20
2019-06-07T09:43:55.331Z,2.10
2019-06-07T09:45:32.604Z,2.20
2019-06-07T09:48:04.385Z,2.50
2019-06-07T09:50:29.190Z,2.33
2019-06-07T09:53:02.807Z,2.00
2019-06-07T09:55:26.177Z,2.27
2019-06-07T09:57:53.494Z,2.22
2019-06-07T10:00:39.928Z,1.92
2019-06-07T10:02:50.179Z,2.40
2019-06-07T10:05:17.595Z,1.80
2019-06-07T10:07:59.615Z,1.85
2019-06-07T10:12:43.958Z,2.37
2019-06-07T10:15:11.428Z,2.17
2019-06-07T10:17:38.778Z,1.75
2019-06-07T10:20:07.473Z,1.87
2019-06-07T10:22:34.994Z,1.95
2019-06-07T10:25:02.493Z,1.95
2019-06-07T10:27:31.424Z,1.80
2019-06-07T10:30:00.227Z,1.50
2019-06-07T10:32:27.766Z,1.50
2019-06-07T10:34:55.089Z,1.60
2019-06-07T10:37:22.418Z,1.65
2019-06-07T10:39:49.877Z,1.77
2019-06-07T10:42:17.336Z,1.72
2019-06-07T10:44:44.744Z,2.10
2019-06-07T10:47:12.362Z,1.65
2019-06-07T10:49:39.812Z,1.37
2019-06-07T10:52:08.511Z,1.42
2019-06-07T10:54:36.379Z,1.47
2019-06-07T10:57:04.857Z,1.60
2019-06-07T10:59:32.338Z,1.70
2019-06-07T11:01:59.734Z,1.80
2019-06-07T11:04:27.088Z,1.65
2019-06-07T11:06:54.430Z,1.80
2019-06-07T11:09:21.746Z,1.40
2019-06-07T11:11:49.072Z,1.70
2019-06-07T11:14:16.504Z,1.60
2019-06-07T11:16:43.888Z,1.80
2019-06-07T11:19:14.431Z,1.82
2019-06-07T11:21:40.581Z,1.98
2019-06-07T11:24:08.099Z,1.60
2019-06-07T11:26:35.502Z,1.70
2019-06-07T11:29:02.952Z,1.80
2019-06-07T11:31:30.364Z,1.90
2019-06-07T11:33:57.717Z,1.70
2019-06-07T11:36:25.029Z,1.62
2019-06-07T11:38:52.417Z,1.50
2019-06-07T11:41:19.724Z,1.80
2019-06-07T11:43:47.050Z,1.50
2019-06-07T11:46:15.120Z,1.90
2019-06-07T11:48:42.620Z,1.27
2019-06-07T11:51:10.806Z,1.70
2019-06-07T11:53:38.402Z,1.60
2019-06-07T11:56:05.823Z,1.42
2019-06-07T11:58:33.140Z,1.35
2019-06-07T12:01:00.458Z,1.67
2019-06-07T12:03:27.786Z,1.50
2019-06-07T12:05:55.195Z,1.50
2019-06-07T12:08:22.544Z,1.47
2019-06-07T12:10:49.881Z,1.52
2019-06-07T12:13:17.733Z,1.55
2019-06-07T12:15:48.954Z,1.70
2019-06-07T12:18:15.673Z,1.40
2019-06-07T12:20:43.017Z,1.40
2019-06-07T12:23:11.920Z,1.60
2019-06-07T12:25:39.547Z,1.80
2019-06-07T12:28:06.982Z,1.72
2019-06-07T12:30:34.295Z,1.82
2019-06-07T12:33:01.604Z,1.62
2019-06-07T12:35:29.034Z,1.70
2019-06-07T12:37:56.410Z,1.50
2019-06-07T12:40:30.140Z,1.72
2019-06-07T12:42:52.994Z,1.57
2019-06-07T12:45:41.258Z,1.98
2019-06-07T12:47:49.654Z,1.70
2019-06-07T12:50:17.469Z,1.70
2019-06-07T12:52:44.906Z,1.82
2019-06-07T12:55:13.927Z,1.62
2019-06-07T12:57:41.534Z,1.65
2019-06-07T13:00:10.103Z,1.80
2019-06-07T13:02:37.514Z,1.80
2019-06-07T13:05:05.943Z,1.55
2019-06-07T13:07:33.263Z,1.72
2019-06-07T13:10:00.670Z,1.98
2019-06-07T13:12:28.246Z,1.60
2019-06-07T13:14:57.794Z,1.75
2019-06-07T13:17:25.177Z,1.67
2019-06-07T13:19:52.579Z,1.60
2019-06-07T13:22:20.388Z,1.80
2019-06-07T13:24:47.793Z,1.77
2019-06-07T13:27:16.228Z,1.60
2019-06-07T13:29:43.636Z,1.47
2019-06-07T13:32:10.953Z,1.87
2019-06-07T13:34:38.433Z,1.87
2019-06-07T13:37:25.589Z,1.80
2019-06-07T13:39:53.056Z,1.75
2019-06-07T13:42:20.526Z,1.62
2019-06-07T13:44:47.923Z,1.80
2019-06-07T13:47:15.285Z,1.90
2019-06-07T13:49:42.604Z,1.90
2019-06-07T13:52:09.971Z,1.87
2019-06-07T13:54:37.305Z,1.70
2019-06-07T13:59:43.728Z,1.85
2019-06-07T14:02:11.141Z,2.10
2019-06-07T14:04:38.417Z,1.87
2019-06-07T14:07:05.738Z,1.87
2019-06-07T14:09:33.162Z,1.90
2019-06-07T14:12:00.553Z,1.95
2019-06-07T14:14:29.181Z,1.80
2019-06-07T14:16:57.171Z,1.90
2019-06-07T14:19:24.592Z,1.70
2019-06-07T14:21:52.021Z,1.70
2019-06-07T14:24:19.297Z,2.27
2019-06-07T14:27:05.125Z,1.90
2019-06-07T14:29:32.528Z,1.90
2019-06-07T14:31:59.941Z,1.50
2019-06-07T14:34:28.605Z,1.50
2019-06-07T14:36:56.179Z,1.72
2019-06-07T14:39:24.861Z,1.70
2019-06-07T14:42:07.947Z,1.40
2019-06-07T14:44:21.471Z,1.80
2019-06-07T14:46:48.817Z,1.60
2019-06-07T14:49:16.133Z,1.75
2019-06-07T14:51:43.500Z,1.57
2019-06-07T14:54:10.904Z,1.82
2019-06-07T14:56:39.436Z,1.65
2019-06-07T14:59:06.762Z,1.65
2019-06-07T15:01:35.561Z,1.65
2019-06-07T15:04:03.420Z,1.45
2019-06-07T15:06:30.741Z,1.70
2019-06-07T15:08:58.065Z,1.70
2019-06-07T15:11:26.749Z,1.50
2019-06-07T15:13:54.248Z,1.57
2019-06-07T15:16:21.658Z,1.60
2019-06-07T15:18:48.943Z,1.37
2019-06-07T15:21:16.313Z,1.70
2019-06-07T15:23:43.614Z,1.77
2019-06-07T15:26:11.049Z,1.57
2019-06-07T15:28:38.540Z,1.77
2019-06-07T15:31:05.870Z,1.67
2019-06-07T15:33:34.325Z,1.80
2019-06-07T15:36:01.897Z,1.90
2019-06-07T15:38:29.562Z,2.30
2019-06-07T15:40:58.528Z,2.08
2019-06-07T15:43:25.854Z,2.08
2019-06-07T15:45:53.187Z,1.87
2019-06-07T15:48:20.488Z,1.87
2019-06-07T15:50:47.817Z,1.90
2019-06-07T15:53:15.118Z,2.02
2019-06-07T15:55:45.601Z,2.30
2019-06-07T15:58:11.706Z,1.90
2019-06-07T16:00:40.582Z,1.90
2019-06-07T16:03:08.426Z,1.90
2019-06-07T16:05:36.421Z,2.10
2019-06-07T16:08:04.068Z,2.15
2019-06-07T16:10:32.553Z,2.00
2019-06-07T16:13:00.976Z,1.80
2019-06-07T16:15:28.579Z,1.85
2019-06-07T16:17:55.915Z,2.20
2019-06-07T16:20:23.352Z,2.05
2019-06-07T16:22:52.555Z,2.15
2019-06-07T16:25:20.095Z,1.90
2019-06-07T16:27:48.718Z,1.85
2019-06-07T16:30:16.489Z,2.00
2019-06-07T16:32:45.781Z,2.10
2019-06-07T16:35:13.025Z,2.10
2019-06-07T16:37:40.904Z,2.20
2019-06-07T16:40:09.695Z,2.25
2019-06-07T16:42:38.358Z,2.20
2019-06-07T16:45:06.940Z,2.12
2019-06-07T16:47:37.153Z,2.08
2019-06-07T16:50:04.390Z,1.90
2019-06-07T16:52:31.753Z,1.75
2019-06-07T16:54:59.065Z,2.10
2019-06-07T16:57:26.366Z,1.95
2019-06-07T16:59:53.671Z,1.85
2019-06-07T17:02:20.998Z,1.80
2019-06-07T17:04:48.350Z,2.00
2019-06-07T17:07:15.777Z,2.17
2019-06-07T17:09:45.348Z,2.00
2019-06-07T17:12:12.316Z,1.85
2019-06-07T17:14:40.383Z,1.90
2019-06-07T17:17:07.848Z,1.95
2019-06-07T17:19:35.141Z,1.95
2019-06-07T17:22:02.485Z,1.92
2019-06-07T17:24:29.810Z,2.02
2019-06-07T17:26:57.256Z,2.20
2019-06-07T17:29:35.818Z,1.87
2019-06-07T17:32:16.877Z,1.67
2019-06-07T17:34:44.559Z,1.98
2019-06-07T17:37:11.881Z,1.90
2019-06-07T17:39:40.536Z,1.92
2019-06-07T17:42:09.047Z,1.80
2019-06-07T17:44:36.444Z,1.90
2019-06-07T17:47:03.766Z,1.90
2019-06-07T17:49:31.075Z,1.75
2019-06-07T17:51:58.406Z,2.00
2019-06-07T17:54:25.862Z,1.82
2019-06-07T17:56:53.421Z,2.00
2019-06-07T17:59:20.873Z,2.20
2019-06-07T18:02:10.235Z,1.85
2019-06-07T18:04:17.494Z,2.08
2019-06-07T18:06:45.262Z,2.05
2019-06-07T18:09:14.135Z,2.35
2019-06-07T18:11:41.547Z,2.00
2019-06-07T18:14:11.085Z,2.90
2019-06-07T18:16:38.339Z,2.62
2019-06-07T18:19:06.767Z,2.47
2019-06-07T18:21:34.212Z,2.58
2019-06-07T18:24:01.571Z,2.45
2019-06-07T18:26:28.924Z,2.60
2019-06-07T18:28:56.249Z,2.55
2019-06-07T18:31:23.581Z,2.25
2019-06-07T18:33:50.989Z,2.00
2019-06-07T18:36:18.368Z,2.50
2019-06-07T18:38:46.836Z,2.17
2019-06-07T18:41:14.443Z,2.05
2019-06-07T18:43:41.792Z,1.95
2019-06-07T18:46:09.092Z,2.02
2019-06-07T18:48:36.525Z,2.10
2019-06-07T18:51:03.961Z,2.08
2019-06-07T18:53:31.255Z,2.12
2019-06-07T18:56:00.403Z,2.17
2019-06-07T18:58:27.834Z,1.95
2019-06-07T19:00:55.542Z,2.08
2019-06-07T19:03:22.980Z,2.00
2019-06-07T19:05:50.461Z,2.60
2019-06-07T19:08:17.876Z,2.65
2019-06-07T19:10:45.315Z,9.35
2019-06-07T19:13:12.742Z,12.63
2019-06-07T19:15:43.218Z,23.77
2019-06-07T19:18:09.275Z,14.58
2019-06-07T19:20:36.594Z,11.08
2019-06-07T19:23:04.010Z,9.28
2019-06-07T19:25:31.430Z,7.37
2019-06-07T19:27:59.141Z,6.03
2019-06-07T19:30:27.911Z,5.47
2019-06-07T19:32:55.328Z,4.62
2019-06-07T19:35:22.760Z,4.40
2019-06-07T19:37:50.136Z,3.65
2019-06-07T19:40:17.817Z,4.00
2019-06-07T19:42:45.285Z,3.87
2019-06-07T19:45:30.683Z,3.80
2019-06-07T19:47:42.304Z,3.60
2019-06-07T19:50:10.354Z,3.58
2019-06-07T19:52:37.711Z,3.37
2019-06-07T19:55:08.848Z,3.33
2019-06-07T19:57:34.901Z,3.72
2019-06-07T20:00:04.109Z,3.95
2019-06-07T20:02:31.626Z,4.17
2019-06-07T20:05:02.977Z,3.77
2019-06-07T20:07:28.186Z,4.00
2019-06-07T20:09:56.519Z,3.65
2019-06-07T20:12:24.083Z,3.40
2019-06-07T20:14:53.864Z,3.05
2019-06-07T20:17:20.687Z,3.52
2019-06-07T20:19:48.196Z,3.92
2019-06-07T20:22:15.962Z,3.80
2019-06-07T20:24:43.292Z,3.35
2019-06-07T20:27:10.691Z,2.98
2019-06-07T20:29:38.126Z,3.75
2019-06-07T20:32:05.461Z,4.37
2019-06-07T20:34:32.927Z,3.70
2019-06-07T20:37:00.276Z,3.30
2019-06-07T20:39:27.729Z,3.35
2019-06-07T20:41:55.072Z,3.20
2019-06-07T20:44:23.610Z,2.92
2019-06-07T20:46:50.921Z,2.67
2019-06-07T20:49:20.087Z,2.83
2019-06-07T20:51:47.491Z,2.62
2019-06-07T20:54:15.051Z,2.50
2019-06-07T20:56:42.424Z,2.15
2019-06-07T20:59:09.786Z,2.65
2019-06-07T21:01:37.253Z,2.25
2019-06-07T21:04:05.108Z,2.00
2019-06-07T21:06:32.498Z,2.25
2019-06-07T21:09:01.747Z,2.47
2019-06-07T21:11:29.192Z,2.22
2019-06-07T21:13:56.811Z,2.40
2019-06-07T21:16:24.372Z,2.52
2019-06-07T21:18:51.808Z,2.58
2019-06-07T21:21:19.194Z,2.47
2019-06-07T21:23:55.349Z,1.77
2019-06-07T21:26:23.065Z,1.92
2019-06-07T21:28:50.499Z,1.85
2019-06-07T21:31:17.938Z,1.90
2019-06-07T21:33:45.259Z,1.90
2019-06-07T21:36:12.715Z,1.55
2019-06-07T21:38:40.036Z,1.50
2019-06-07T21:41:08.225Z,1.50
2019-06-07T21:43:35.731Z,1.50
2019-06-07T21:46:07.032Z,1.40
2019-06-07T21:48:32.497Z,1.30
2019-06-07T21:50:59.921Z,1.37
2019-06-07T21:53:27.273Z,1.30
2019-06-07T21:55:56.301Z,1.10
2019-06-07T21:58:23.636Z,1.00
2019-06-07T22:01:24.097Z,1.07
2019-06-07T22:03:51.393Z,0.90
2019-06-07T22:06:18.831Z,1.05
2019-06-07T22:08:46.257Z,1.00
2019-06-07T22:11:14.184Z,0.98
2019-06-07T22:13:41.770Z,0.80
2019-06-07T22:16:23.587Z,0.90
2019-06-07T22:18:38.345Z,0.80
2019-06-07T22:21:06.397Z,1.00
2019-06-07T22:23:35.114Z,0.72
2019-06-07T22:26:02.542Z,0.80
2019-06-07T22:28:29.959Z,0.85
2019-06-07T22:30:59.120Z,0.72
2019-06-07T22:33:26.509Z,0.70
2019-06-07T22:35:53.925Z,0.70
2019-06-07T22:38:21.349Z,0.62
2019-06-07T22:40:48.648Z,0.90
2019-06-07T22:43:16.071Z,0.70
2019-06-07T22:45:43.399Z,0.70
2019-06-07T22:48:11.839Z,0.70
2019-06-07T22:50:39.171Z,0.75
2019-06-07T22:53:07.378Z,0.70
2019-06-07T22:55:34.792Z,0.50
2019-06-07T22:58:02.099Z,1.02
2019-06-07T23:00:31.219Z,0.70
2019-06-07T23:02:58.569Z,0.60
2019-06-07T23:05:25.964Z,0.68
2019-06-07T23:07:53.294Z,0.53
2019-06-07T23:10:21.722Z,0.60
2019-06-07T23:12:49.120Z,0.80
2019-06-07T23:15:18.055Z,0.70
2019-06-07T23:17:45.900Z,0.60
2019-06-07T23:20:13.771Z,0.50
2019-06-07T23:22:41.125Z,0.60
2019-06-07T23:25:09.944Z,0.60
2019-06-07T23:27:37.378Z,0.50
2019-06-07T23:30:08.644Z,0.80
2019-06-07T23:32:34.371Z,0.60
2019-06-07T23:35:01.760Z,0.60
2019-06-07T23:37:30.902Z,0.72
2019-06-07T23:39:58.182Z,0.50
2019-06-07T23:42:25.524Z,0.60
2019-06-07T23:44:53.965Z,0.70
2019-06-07T23:47:22.389Z,0.75
2019-06-07T23:49:49.896Z,0.70
2019-06-07T23:52:17.923Z,0.70
2019-06-07T23:54:45.397Z,0.70
2019-06-07T23:57:13.968Z,0.80
2019-06-07T23:59:42.542Z,0.57
